sensor_id;sensor_type;location;lat;lon;timestamp;P1;durP1;ratioP1;P2;durP2;ratioP2
21334;SDS011;10826;52.536;13.432;2022-11-20T00:01:30;10.40;;;9.23;;
21334;SDS011;10826;52.536;13.432;2022-11-20T00:03:56;9.83;;;8.50;;
21334;SDS011;10826;52.536;13.432;2022-11-20T00:06:24;11.67;;;8.47;;
21334;SDS011;10826;52.536;13.432;2022-11-20T00:08:53;11.27;;;8.93;;
21334;SDS011;10826;52.536;13.432;2022-11-20T00:11:24;12.00;;;7.90;;
21334;SDS011;10826;52.536;13.432;2022-11-20T00:13:53;10.47;;;8.30;;
21334;SDS011;10826;52.536;13.432;2022-11-20T00:16:23;10.27;;;8.20;;
21334;SDS011;10826;52.536;13.432;2022-11-20T00:18:51;11.43;;;8.20;;
21334;SDS011;10826;52.536;13.432;2022-11-20T00:21:19;11.47;;;9.17;;
21334;SDS011;10826;52.536;13.432;2022-11-20T00:23:51;10.80;;;8.30;;
21334;SDS011;10826;52.536;13.432;2022-11-20T00:26:20;11.27;;;8.77;;
21334;SDS011;10826;52.536;13.432;2022-11-20T00:28:52;10.53;;;8.27;;
21334;SDS011;10826;52.536;13.432;2022-11-20T00:31:21;10.30;;;8.87;;
21334;SDS011;10826;52.536;13.432;2022-11-20T00:33:47;12.77;;;9.53;;
21334;SDS011;10826;52.536;13.432;2022-11-20T00:36:14;13.00;;;9.73;;
21334;SDS011;10826;52.536;13.432;2022-11-20T00:38:46;10.47;;;8.93;;
21334;SDS011;10826;52.536;13.432;2022-11-20T00:41:16;10.97;;;8.83;;
21334;SDS011;10826;52.536;13.432;2022-11-20T00:43:42;11.50;;;8.67;;
21334;SDS011;10826;52.536;13.432;2022-11-20T00:46:09;11.27;;;7.60;;
21334;SDS011;10826;52.536;13.432;2022-11-20T00:48:42;9.97;;;8.00;;
21334;SDS011;10826;52.536;13.432;2022-11-20T00:51:09;10.03;;;8.57;;
21334;SDS011;10826;52.536;13.432;2022-11-20T00:53:38;13.33;;;8.67;;
21334;SDS011;10826;52.536;13.432;2022-11-20T00:56:05;11.30;;;7.47;;
21334;SDS011;10826;52.536;13.432;2022-11-20T00:58:37;10.03;;;7.80;;
21334;SDS011;10826;52.536;13.432;2022-11-20T01:01:06;10.43;;;8.10;;
21334;SDS011;10826;52.536;13.432;2022-11-20T01:03:42;10.10;;;8.13;;
21334;SDS011;10826;52.536;13.432;2022-11-20T01:06:17;10.57;;;7.60;;
21334;SDS011;10826;52.536;13.432;2022-11-20T01:08:56;8.10;;;7.27;;
21334;SDS011;10826;52.536;13.432;2022-11-20T01:11:26;10.17;;;8.40;;
21334;SDS011;10826;52.536;13.432;2022-11-20T01:13:55;8.60;;;7.63;;
21334;SDS011;10826;52.536;13.432;2022-11-20T01:16:31;12.63;;;8.40;;
21334;SDS011;10826;52.536;13.432;2022-11-20T01:19:00;9.83;;;7.73;;
21334;SDS011;10826;52.536;13.432;2022-11-20T01:21:31;9.57;;;8.47;;
21334;SDS011;10826;52.536;13.432;2022-11-20T01:24:00;8.30;;;7.50;;
21334;SDS011;10826;52.536;13.432;2022-11-20T01:26:31;12.00;;;8.80;;
21334;SDS011;10826;52.536;13.432;2022-11-20T01:29:00;14.23;;;7.97;;
21334;SDS011;10826;52.536;13.432;2022-11-20T01:31:31;9.33;;;6.80;;
21334;SDS011;10826;52.536;13.432;2022-11-20T01:34:06;11.20;;;7.33;;
21334;SDS011;10826;52.536;13.432;2022-11-20T01:36:39;8.50;;;7.57;;
21334;SDS011;10826;52.536;13.432;2022-11-20T01:39:11;11.93;;;7.83;;
21334;SDS011;10826;52.536;13.432;2022-11-20T01:41:41;11.40;;;8.23;;
21334;SDS011;10826;52.536;13.432;2022-11-20T01:44:47;9.67;;;7.83;;
21334;SDS011;10826;52.536;13.432;2022-11-20T01:47:23;11.60;;;8.03;;
21334;SDS011;10826;52.536;13.432;2022-11-20T01:50:02;10.27;;;7.97;;
21334;SDS011;10826;52.536;13.432;2022-11-20T01:53:09;9.63;;;7.83;;
21334;SDS011;10826;52.536;13.432;2022-11-20T01:55:44;11.30;;;8.23;;
21334;SDS011;10826;52.536;13.432;2022-11-20T01:58:15;14.23;;;8.30;;
21334;SDS011;10826;52.536;13.432;2022-11-20T02:00:45;11.57;;;7.47;;
21334;SDS011;10826;52.536;13.432;2022-11-20T02:03:12;13.37;;;8.60;;
21334;SDS011;10826;52.536;13.432;2022-11-20T02:05:47;24.60;;;12.90;;
21334;SDS011;10826;52.536;13.432;2022-11-20T02:08:21;13.60;;;8.37;;
21334;SDS011;10826;52.536;13.432;2022-11-20T02:10:49;12.40;;;9.70;;
21334;SDS011;10826;52.536;13.432;2022-11-20T02:13:14;14.37;;;8.00;;
21334;SDS011;10826;52.536;13.432;2022-11-20T02:16:00;11.93;;;8.47;;
21334;SDS011;10826;52.536;13.432;2022-11-20T02:18:27;12.13;;;8.67;;
21334;SDS011;10826;52.536;13.432;2022-11-20T02:20:56;11.00;;;8.17;;
21334;SDS011;10826;52.536;13.432;2022-11-20T02:23:38;11.47;;;8.17;;
21334;SDS011;10826;52.536;13.432;2022-11-20T02:26:19;11.20;;;8.50;;
21334;SDS011;10826;52.536;13.432;2022-11-20T02:28:48;12.10;;;8.43;;
21334;SDS011;10826;52.536;13.432;2022-11-20T02:31:15;10.47;;;8.57;;
21334;SDS011;10826;52.536;13.432;2022-11-20T02:33:41;11.53;;;8.93;;
21334;SDS011;10826;52.536;13.432;2022-11-20T02:36:08;13.30;;;8.87;;
21334;SDS011;10826;52.536;13.432;2022-11-20T02:38:40;14.30;;;9.80;;
21334;SDS011;10826;52.536;13.432;2022-11-20T02:41:08;12.77;;;9.10;;
21334;SDS011;10826;52.536;13.432;2022-11-20T02:43:34;10.03;;;8.80;;
21334;SDS011;10826;52.536;13.432;2022-11-20T02:45:59;9.90;;;8.47;;
21334;SDS011;10826;52.536;13.432;2022-11-20T02:48:25;11.33;;;8.97;;
21334;SDS011;10826;52.536;13.432;2022-11-20T02:50:51;10.03;;;9.03;;
21334;SDS011;10826;52.536;13.432;2022-11-20T02:53:17;13.33;;;9.30;;
21334;SDS011;10826;52.536;13.432;2022-11-20T02:55:43;12.13;;;9.00;;
21334;SDS011;10826;52.536;13.432;2022-11-20T02:58:08;10.40;;;8.70;;
21334;SDS011;10826;52.536;13.432;2022-11-20T03:00:34;11.90;;;9.43;;
21334;SDS011;10826;52.536;13.432;2022-11-20T03:03:01;12.30;;;9.37;;
21334;SDS011;10826;52.536;13.432;2022-11-20T03:05:27;11.40;;;8.67;;
21334;SDS011;10826;52.536;13.432;2022-11-20T03:07:53;10.30;;;9.17;;
21334;SDS011;10826;52.536;13.432;2022-11-20T03:10:18;12.27;;;8.73;;
21334;SDS011;10826;52.536;13.432;2022-11-20T03:12:44;10.70;;;8.50;;
21334;SDS011;10826;52.536;13.432;2022-11-20T03:15:10;11.20;;;8.50;;
21334;SDS011;10826;52.536;13.432;2022-11-20T03:17:36;13.20;;;9.37;;
21334;SDS011;10826;52.536;13.432;2022-11-20T03:20:02;12.73;;;9.30;;
21334;SDS011;10826;52.536;13.432;2022-11-20T03:22:29;13.10;;;9.47;;
21334;SDS011;10826;52.536;13.432;2022-11-20T03:24:55;17.07;;;8.90;;
21334;SDS011;10826;52.536;13.432;2022-11-20T03:27:21;9.50;;;8.50;;
21334;SDS011;10826;52.536;13.432;2022-11-20T03:29:47;10.87;;;8.90;;
21334;SDS011;10826;52.536;13.432;2022-11-20T03:32:12;10.60;;;9.13;;
21334;SDS011;10826;52.536;13.432;2022-11-20T03:34:38;10.47;;;9.37;;
21334;SDS011;10826;52.536;13.432;2022-11-20T03:37:04;15.17;;;8.63;;
21334;SDS011;10826;52.536;13.432;2022-11-20T03:39:30;16.07;;;10.20;;
21334;SDS011;10826;52.536;13.432;2022-11-20T03:41:56;19.53;;;11.17;;
21334;SDS011;10826;52.536;13.432;2022-11-20T03:44:22;12.73;;;9.37;;
21334;SDS011;10826;52.536;13.432;2022-11-20T03:46:48;13.03;;;9.40;;
21334;SDS011;10826;52.536;13.432;2022-11-20T03:49:14;11.60;;;9.10;;
21334;SDS011;10826;52.536;13.432;2022-11-20T03:51:40;10.60;;;9.40;;
21334;SDS011;10826;52.536;13.432;2022-11-20T03:54:06;11.27;;;9.47;;
21334;SDS011;10826;52.536;13.432;2022-11-20T03:56:35;11.13;;;8.50;;
21334;SDS011;10826;52.536;13.432;2022-11-20T03:59:03;16.97;;;9.70;;
21334;SDS011;10826;52.536;13.432;2022-11-20T04:01:31;16.70;;;10.13;;
21334;SDS011;10826;52.536;13.432;2022-11-20T04:03:59;14.33;;;9.83;;
21334;SDS011;10826;52.536;13.432;2022-11-20T04:06:30;12.07;;;9.60;;
21334;SDS011;10826;52.536;13.432;2022-11-20T04:09:00;11.10;;;9.63;;
21334;SDS011;10826;52.536;13.432;2022-11-20T04:11:28;10.80;;;9.03;;
21334;SDS011;10826;52.536;13.432;2022-11-20T04:13:58;13.20;;;9.60;;
21334;SDS011;10826;52.536;13.432;2022-11-20T04:16:28;12.30;;;9.43;;
21334;SDS011;10826;52.536;13.432;2022-11-20T04:18:57;11.90;;;8.97;;
21334;SDS011;10826;52.536;13.432;2022-11-20T04:21:26;14.10;;;10.00;;
21334;SDS011;10826;52.536;13.432;2022-11-20T04:23:53;12.97;;;9.47;;
21334;SDS011;10826;52.536;13.432;2022-11-20T04:26:19;11.50;;;9.57;;
21334;SDS011;10826;52.536;13.432;2022-11-20T04:28:47;10.90;;;9.60;;
21334;SDS011;10826;52.536;13.432;2022-11-20T04:31:14;11.10;;;8.70;;
21334;SDS011;10826;52.536;13.432;2022-11-20T04:33:43;13.93;;;9.27;;
21334;SDS011;10826;52.536;13.432;2022-11-20T04:36:13;11.80;;;9.70;;
21334;SDS011;10826;52.536;13.432;2022-11-20T04:38:55;13.40;;;10.30;;
21334;SDS011;10826;52.536;13.432;2022-11-20T04:41:27;14.47;;;10.03;;
21334;SDS011;10826;52.536;13.432;2022-11-20T04:43:57;13.03;;;9.53;;
21334;SDS011;10826;52.536;13.432;2022-11-20T04:46:28;10.70;;;9.27;;
21334;SDS011;10826;52.536;13.432;2022-11-20T04:49:00;10.73;;;8.83;;
21334;SDS011;10826;52.536;13.432;2022-11-20T04:51:26;10.33;;;7.97;;
21334;SDS011;10826;52.536;13.432;2022-11-20T04:53:52;12.07;;;9.63;;
21334;SDS011;10826;52.536;13.432;2022-11-20T04:56:18;14.37;;;10.23;;
21334;SDS011;10826;52.536;13.432;2022-11-20T04:58:44;11.83;;;9.27;;
21334;SDS011;10826;52.536;13.432;2022-11-20T05:01:11;13.10;;;9.73;;
21334;SDS011;10826;52.536;13.432;2022-11-20T05:03:43;14.53;;;9.13;;
21334;SDS011;10826;52.536;13.432;2022-11-20T05:06:10;11.53;;;8.87;;
21334;SDS011;10826;52.536;13.432;2022-11-20T05:08:39;11.13;;;8.83;;
21334;SDS011;10826;52.536;13.432;2022-11-20T05:11:10;10.77;;;9.17;;
21334;SDS011;10826;52.536;13.432;2022-11-20T05:13:39;11.07;;;8.97;;
21334;SDS011;10826;52.536;13.432;2022-11-20T05:16:10;14.73;;;9.53;;
21334;SDS011;10826;52.536;13.432;2022-11-20T05:18:38;12.80;;;9.33;;
21334;SDS011;10826;52.536;13.432;2022-11-20T05:21:05;12.00;;;8.77;;
21334;SDS011;10826;52.536;13.432;2022-11-20T05:23:32;11.90;;;9.00;;
21334;SDS011;10826;52.536;13.432;2022-11-20T05:25:59;11.93;;;9.53;;
21334;SDS011;10826;52.536;13.432;2022-11-20T05:28:27;11.80;;;9.30;;
21334;SDS011;10826;52.536;13.432;2022-11-20T05:30:55;10.87;;;8.93;;
21334;SDS011;10826;52.536;13.432;2022-11-20T05:33:21;12.43;;;8.87;;
21334;SDS011;10826;52.536;13.432;2022-11-20T05:35:47;14.20;;;9.33;;
21334;SDS011;10826;52.536;13.432;2022-11-20T05:38:14;13.17;;;9.23;;
21334;SDS011;10826;52.536;13.432;2022-11-20T05:40:39;12.07;;;8.47;;
21334;SDS011;10826;52.536;13.432;2022-11-20T05:43:05;16.27;;;9.30;;
21334;SDS011;10826;52.536;13.432;2022-11-20T05:45:31;12.53;;;9.47;;
21334;SDS011;10826;52.536;13.432;2022-11-20T05:47:58;13.57;;;9.67;;
21334;SDS011;10826;52.536;13.432;2022-11-20T05:50:27;11.97;;;9.77;;
21334;SDS011;10826;52.536;13.432;2022-11-20T05:52:53;11.83;;;8.77;;
21334;SDS011;10826;52.536;13.432;2022-11-20T05:55:19;13.77;;;9.13;;
21334;SDS011;10826;52.536;13.432;2022-11-20T05:57:45;13.90;;;8.90;;
21334;SDS011;10826;52.536;13.432;2022-11-20T06:00:11;11.97;;;9.57;;
21334;SDS011;10826;52.536;13.432;2022-11-20T06:02:38;16.47;;;9.60;;
21334;SDS011;10826;52.536;13.432;2022-11-20T06:05:04;12.43;;;9.17;;
21334;SDS011;10826;52.536;13.432;2022-11-20T06:07:30;13.67;;;9.70;;
21334;SDS011;10826;52.536;13.432;2022-11-20T06:09:55;13.97;;;10.43;;
21334;SDS011;10826;52.536;13.432;2022-11-20T06:12:21;14.67;;;9.47;;
21334;SDS011;10826;52.536;13.432;2022-11-20T06:14:47;14.97;;;9.97;;
21334;SDS011;10826;52.536;13.432;2022-11-20T06:17:13;13.87;;;9.30;;
21334;SDS011;10826;52.536;13.432;2022-11-20T06:19:39;11.07;;;8.87;;
21334;SDS011;10826;52.536;13.432;2022-11-20T06:22:04;14.40;;;9.50;;
21334;SDS011;10826;52.536;13.432;2022-11-20T06:24:30;13.30;;;9.33;;
21334;SDS011;10826;52.536;13.432;2022-11-20T06:26:56;16.07;;;9.47;;
21334;SDS011;10826;52.536;13.432;2022-11-20T06:29:22;11.57;;;8.53;;
21334;SDS011;10826;52.536;13.432;2022-11-20T06:31:48;12.47;;;9.13;;
21334;SDS011;10826;52.536;13.432;2022-11-20T06:34:14;11.00;;;8.17;;
21334;SDS011;10826;52.536;13.432;2022-11-20T06:36:40;9.67;;;8.63;;
21334;SDS011;10826;52.536;13.432;2022-11-20T06:39:06;14.50;;;10.07;;
21334;SDS011;10826;52.536;13.432;2022-11-20T06:41:31;13.57;;;9.47;;
21334;SDS011;10826;52.536;13.432;2022-11-20T06:43:57;10.90;;;9.27;;
21334;SDS011;10826;52.536;13.432;2022-11-20T06:46:23;15.20;;;9.07;;
21334;SDS011;10826;52.536;13.432;2022-11-20T06:48:49;12.73;;;9.43;;
21334;SDS011;10826;52.536;13.432;2022-11-20T06:51:16;13.90;;;9.80;;
21334;SDS011;10826;52.536;13.432;2022-11-20T06:53:42;10.83;;;9.57;;
21334;SDS011;10826;52.536;13.432;2022-11-20T06:56:08;14.87;;;9.43;;
21334;SDS011;10826;52.536;13.432;2022-11-20T06:58:34;13.07;;;9.43;;
21334;SDS011;10826;52.536;13.432;2022-11-20T07:01:03;11.77;;;9.63;;
21334;SDS011;10826;52.536;13.432;2022-11-20T07:03:32;12.30;;;9.80;;
21334;SDS011;10826;52.536;13.432;2022-11-20T07:05:59;10.50;;;8.93;;
21334;SDS011;10826;52.536;13.432;2022-11-20T07:08:26;11.03;;;8.93;;
21334;SDS011;10826;52.536;13.432;2022-11-20T07:10:52;11.40;;;9.30;;
21334;SDS011;10826;52.536;13.432;2022-11-20T07:13:23;10.93;;;9.17;;
21334;SDS011;10826;52.536;13.432;2022-11-20T07:15:49;10.97;;;9.60;;
21334;SDS011;10826;52.536;13.432;2022-11-20T07:18:15;16.10;;;9.27;;
21334;SDS011;10826;52.536;13.432;2022-11-20T07:20:41;15.57;;;9.97;;
21334;SDS011;10826;52.536;13.432;2022-11-20T07:23:07;11.13;;;9.07;;
21334;SDS011;10826;52.536;13.432;2022-11-20T07:25:33;12.63;;;9.47;;
21334;SDS011;10826;52.536;13.432;2022-11-20T07:27:59;12.00;;;8.83;;
21334;SDS011;10826;52.536;13.432;2022-11-20T07:30:27;13.83;;;9.53;;
21334;SDS011;10826;52.536;13.432;2022-11-20T07:32:54;13.73;;;9.23;;
21334;SDS011;10826;52.536;13.432;2022-11-20T07:35:21;12.53;;;9.87;;
21334;SDS011;10826;52.536;13.432;2022-11-20T07:37:48;13.17;;;9.23;;
21334;SDS011;10826;52.536;13.432;2022-11-20T07:40:15;14.37;;;9.83;;
21334;SDS011;10826;52.536;13.432;2022-11-20T07:42:51;16.73;;;9.60;;
21334;SDS011;10826;52.536;13.432;2022-11-20T07:45:20;12.20;;;9.43;;
21334;SDS011;10826;52.536;13.432;2022-11-20T07:47:49;13.00;;;9.77;;
21334;SDS011;10826;52.536;13.432;2022-11-20T07:50:16;11.10;;;9.30;;
21334;SDS011;10826;52.536;13.432;2022-11-20T07:52:43;15.60;;;10.43;;
21334;SDS011;10826;52.536;13.432;2022-11-20T07:55:09;13.73;;;10.07;;
21334;SDS011;10826;52.536;13.432;2022-11-20T07:57:36;17.10;;;10.50;;
21334;SDS011;10826;52.536;13.432;2022-11-20T08:00:03;14.50;;;10.23;;
21334;SDS011;10826;52.536;13.432;2022-11-20T08:02:32;14.33;;;10.13;;
21334;SDS011;10826;52.536;13.432;2022-11-20T08:04:57;15.17;;;10.00;;
21334;SDS011;10826;52.536;13.432;2022-11-20T08:07:23;15.23;;;10.10;;
21334;SDS011;10826;52.536;13.432;2022-11-20T08:09:49;12.47;;;10.17;;
21334;SDS011;10826;52.536;13.432;2022-11-20T08:12:17;15.33;;;10.13;;
21334;SDS011;10826;52.536;13.432;2022-11-20T08:15:04;12.63;;;9.97;;
21334;SDS011;10826;52.536;13.432;2022-11-20T08:17:31;14.80;;;10.00;;
21334;SDS011;10826;52.536;13.432;2022-11-20T08:19:57;15.33;;;9.47;;
21334;SDS011;10826;52.536;13.432;2022-11-20T08:22:23;12.43;;;9.67;;
21334;SDS011;10826;52.536;13.432;2022-11-20T08:24:49;14.17;;;9.80;;
21334;SDS011;10826;52.536;13.432;2022-11-20T08:27:15;16.37;;;10.17;;
21334;SDS011;10826;52.536;13.432;2022-11-20T08:29:41;10.97;;;9.27;;
21334;SDS011;10826;52.536;13.432;2022-11-20T08:32:07;15.30;;;9.97;;
21334;SDS011;10826;52.536;13.432;2022-11-20T08:34:33;15.30;;;10.00;;
21334;SDS011;10826;52.536;13.432;2022-11-20T08:36:59;13.43;;;10.13;;
21334;SDS011;10826;52.536;13.432;2022-11-20T08:39:26;14.33;;;9.67;;
21334;SDS011;10826;52.536;13.432;2022-11-20T08:41:52;13.43;;;9.83;;
21334;SDS011;10826;52.536;13.432;2022-11-20T08:44:18;10.83;;;8.90;;
21334;SDS011;10826;52.536;13.432;2022-11-20T08:46:44;16.70;;;10.37;;
21334;SDS011;10826;52.536;13.432;2022-11-20T08:49:11;14.07;;;10.00;;
21334;SDS011;10826;52.536;13.432;2022-11-20T08:51:39;17.57;;;10.50;;
21334;SDS011;10826;52.536;13.432;2022-11-20T08:54:06;15.33;;;10.70;;
21334;SDS011;10826;52.536;13.432;2022-11-20T08:56:33;17.57;;;10.33;;
21334;SDS011;10826;52.536;13.432;2022-11-20T08:59:00;15.70;;;10.50;;
21334;SDS011;10826;52.536;13.432;2022-11-20T09:01:26;15.13;;;9.97;;
21334;SDS011;10826;52.536;13.432;2022-11-20T09:03:57;13.60;;;10.30;;
21334;SDS011;10826;52.536;13.432;2022-11-20T09:06:24;23.40;;;14.93;;
21334;SDS011;10826;52.536;13.432;2022-11-20T09:08:51;18.20;;;12.17;;
21334;SDS011;10826;52.536;13.432;2022-11-20T09:11:20;15.20;;;11.07;;
21334;SDS011;10826;52.536;13.432;2022-11-20T09:13:47;15.97;;;11.13;;
21334;SDS011;10826;52.536;13.432;2022-11-20T09:16:12;14.70;;;10.53;;
21334;SDS011;10826;52.536;13.432;2022-11-20T09:18:38;14.47;;;10.80;;
21334;SDS011;10826;52.536;13.432;2022-11-20T09:21:05;12.50;;;10.00;;
21334;SDS011;10826;52.536;13.432;2022-11-20T09:23:36;13.33;;;10.37;;
21334;SDS011;10826;52.536;13.432;2022-11-20T09:26:10;15.07;;;9.97;;
21334;SDS011;10826;52.536;13.432;2022-11-20T09:28:38;12.33;;;9.90;;
21334;SDS011;10826;52.536;13.432;2022-11-20T09:31:08;13.87;;;9.80;;
21334;SDS011;10826;52.536;13.432;2022-11-20T09:33:46;14.93;;;10.10;;
21334;SDS011;10826;52.536;13.432;2022-11-20T09:36:12;13.07;;;9.93;;
21334;SDS011;10826;52.536;13.432;2022-11-20T09:38:39;15.77;;;10.63;;
21334;SDS011;10826;52.536;13.432;2022-11-20T09:41:05;14.00;;;10.73;;
21334;SDS011;10826;52.536;13.432;2022-11-20T09:43:38;15.40;;;10.53;;
21334;SDS011;10826;52.536;13.432;2022-11-20T09:46:40;17.03;;;10.67;;
21334;SDS011;10826;52.536;13.432;2022-11-20T09:52:36;14.07;;;10.20;;
21334;SDS011;10826;52.536;13.432;2022-11-20T09:55:16;9.70;;;8.70;;
21334;SDS011;10826;52.536;13.432;2022-11-20T09:57:44;11.93;;;9.80;;
21334;SDS011;10826;52.536;13.432;2022-11-20T10:00:15;12.13;;;9.33;;
21334;SDS011;10826;52.536;13.432;2022-11-20T10:02:47;12.73;;;9.53;;
21334;SDS011;10826;52.536;13.432;2022-11-20T10:11:08;13.10;;;8.90;;
21334;SDS011;10826;52.536;13.432;2022-11-20T10:13:51;12.57;;;9.23;;
21334;SDS011;10826;52.536;13.432;2022-11-20T10:16:47;12.47;;;9.33;;
21334;SDS011;10826;52.536;13.432;2022-11-20T10:19:30;17.83;;;11.63;;
21334;SDS011;10826;52.536;13.432;2022-11-20T10:25:24;10.87;;;9.27;;
21334;SDS011;10826;52.536;13.432;2022-11-20T10:28:42;14.77;;;9.10;;
21334;SDS011;10826;52.536;13.432;2022-11-20T10:31:23;72.40;;;17.77;;
21334;SDS011;10826;52.536;13.432;2022-11-20T10:34:26;21.57;;;10.47;;
21334;SDS011;10826;52.536;13.432;2022-11-20T10:37:24;13.03;;;8.87;;
21334;SDS011;10826;52.536;13.432;2022-11-20T10:42:48;13.00;;;10.33;;
21334;SDS011;10826;52.536;13.432;2022-11-20T10:45:28;14.73;;;10.17;;
21334;SDS011;10826;52.536;13.432;2022-11-20T10:48:24;17.27;;;10.10;;
21334;SDS011;10826;52.536;13.432;2022-11-20T11:02:32;11.67;;;8.70;;
21334;SDS011;10826;52.536;13.432;2022-11-20T11:05:21;9.93;;;8.93;;
21334;SDS011;10826;52.536;13.432;2022-11-20T11:08:10;12.43;;;9.13;;
21334;SDS011;10826;52.536;13.432;2022-11-20T11:11:00;12.03;;;9.73;;
21334;SDS011;10826;52.536;13.432;2022-11-20T11:14:09;9.90;;;8.60;;
21334;SDS011;10826;52.536;13.432;2022-11-20T11:16:54;12.40;;;9.57;;
21334;SDS011;10826;52.536;13.432;2022-11-20T11:19:22;17.33;;;8.90;;
21334;SDS011;10826;52.536;13.432;2022-11-20T11:21:50;12.77;;;9.00;;
21334;SDS011;10826;52.536;13.432;2022-11-20T11:24:21;13.33;;;9.57;;
21334;SDS011;10826;52.536;13.432;2022-11-20T11:26:57;12.00;;;8.93;;
21334;SDS011;10826;52.536;13.432;2022-11-20T11:29:30;12.50;;;9.30;;
21334;SDS011;10826;52.536;13.432;2022-11-20T11:32:29;10.70;;;8.57;;
21334;SDS011;10826;52.536;13.432;2022-11-20T11:35:04;10.73;;;8.67;;
21334;SDS011;10826;52.536;13.432;2022-11-20T11:37:44;11.97;;;8.60;;
21334;SDS011;10826;52.536;13.432;2022-11-20T11:40:12;10.90;;;8.43;;
21334;SDS011;10826;52.536;13.432;2022-11-20T11:42:44;12.30;;;8.70;;
21334;SDS011;10826;52.536;13.432;2022-11-20T11:45:19;11.33;;;9.10;;
21334;SDS011;10826;52.536;13.432;2022-11-20T11:47:48;12.03;;;9.00;;
21334;SDS011;10826;52.536;13.432;2022-11-20T11:50:18;14.00;;;8.53;;
21334;SDS011;10826;52.536;13.432;2022-11-20T11:58:48;10.47;;;7.97;;
21334;SDS011;10826;52.536;13.432;2022-11-20T12:01:37;11.23;;;8.40;;
21334;SDS011;10826;52.536;13.432;2022-11-20T12:04:17;10.77;;;8.70;;
21334;SDS011;10826;52.536;13.432;2022-11-20T12:06:56;10.43;;;8.97;;
21334;SDS011;10826;52.536;13.432;2022-11-20T12:09:34;15.27;;;9.90;;
21334;SDS011;10826;52.536;13.432;2022-11-20T12:12:10;12.57;;;9.83;;
21334;SDS011;10826;52.536;13.432;2022-11-20T12:14:45;9.73;;;8.73;;
21334;SDS011;10826;52.536;13.432;2022-11-20T12:17:15;12.20;;;9.57;;
21334;SDS011;10826;52.536;13.432;2022-11-20T12:19:41;11.47;;;9.13;;
21334;SDS011;10826;52.536;13.432;2022-11-20T12:25:40;10.23;;;8.10;;
21334;SDS011;10826;52.536;13.432;2022-11-20T12:31:07;10.73;;;8.53;;
21334;SDS011;10826;52.536;13.432;2022-11-20T12:33:48;11.00;;;8.10;;
21334;SDS011;10826;52.536;13.432;2022-11-20T12:39:22;11.00;;;8.00;;
21334;SDS011;10826;52.536;13.432;2022-11-20T12:42:27;70.37;;;16.40;;
21334;SDS011;10826;52.536;13.432;2022-11-20T12:51:32;11.03;;;6.83;;
21334;SDS011;10826;52.536;13.432;2022-11-20T12:57:21;12.00;;;7.77;;
21334;SDS011;10826;52.536;13.432;2022-11-20T13:00:07;8.90;;;7.00;;
21334;SDS011;10826;52.536;13.432;2022-11-20T13:05:51;7.00;;;6.40;;
21334;SDS011;10826;52.536;13.432;2022-11-20T13:08:39;6.60;;;5.87;;
21334;SDS011;10826;52.536;13.432;2022-11-20T13:11:14;9.83;;;5.93;;
21334;SDS011;10826;52.536;13.432;2022-11-20T13:17:00;6.93;;;5.60;;
21334;SDS011;10826;52.536;13.432;2022-11-20T13:19:55;32.53;;;9.37;;
21334;SDS011;10826;52.536;13.432;2022-11-20T13:22:24;6.47;;;5.87;;
21334;SDS011;10826;52.536;13.432;2022-11-20T13:24:52;6.60;;;5.90;;
21334;SDS011;10826;52.536;13.432;2022-11-20T13:27:20;7.80;;;6.23;;
21334;SDS011;10826;52.536;13.432;2022-11-20T13:29:58;6.63;;;5.63;;
21334;SDS011;10826;52.536;13.432;2022-11-20T13:32:47;21.27;;;8.03;;
21334;SDS011;10826;52.536;13.432;2022-11-20T13:35:33;9.43;;;6.80;;
21334;SDS011;10826;52.536;13.432;2022-11-20T13:38:08;7.00;;;5.97;;
21334;SDS011;10826;52.536;13.432;2022-11-20T13:43:46;5.97;;;5.37;;
21334;SDS011;10826;52.536;13.432;2022-11-20T13:46:13;10.23;;;6.07;;
21334;SDS011;10826;52.536;13.432;2022-11-20T13:48:44;6.87;;;6.00;;
21334;SDS011;10826;52.536;13.432;2022-11-20T14:00:12;6.20;;;5.57;;
21334;SDS011;10826;52.536;13.432;2022-11-20T14:02:57;6.83;;;5.43;;
21334;SDS011;10826;52.536;13.432;2022-11-20T14:05:27;6.10;;;5.50;;
21334;SDS011;10826;52.536;13.432;2022-11-20T14:07:58;6.77;;;5.77;;
21334;SDS011;10826;52.536;13.432;2022-11-20T14:10:29;6.97;;;5.57;;
21334;SDS011;10826;52.536;13.432;2022-11-20T14:12:55;7.57;;;5.93;;
21334;SDS011;10826;52.536;13.432;2022-11-20T14:15:31;6.50;;;5.83;;
21334;SDS011;10826;52.536;13.432;2022-11-20T14:18:10;7.80;;;6.47;;
21334;SDS011;10826;52.536;13.432;2022-11-20T14:20:46;8.20;;;6.50;;
21334;SDS011;10826;52.536;13.432;2022-11-20T14:23:22;7.50;;;6.47;;
21334;SDS011;10826;52.536;13.432;2022-11-20T14:25:50;8.73;;;7.10;;
21334;SDS011;10826;52.536;13.432;2022-11-20T14:28:26;9.77;;;7.50;;
21334;SDS011;10826;52.536;13.432;2022-11-20T14:30:56;10.80;;;7.67;;
21334;SDS011;10826;52.536;13.432;2022-11-20T14:33:23;8.33;;;7.47;;
21334;SDS011;10826;52.536;13.432;2022-11-20T14:35:55;9.30;;;7.60;;
21334;SDS011;10826;52.536;13.432;2022-11-20T14:38:27;10.17;;;8.43;;
21334;SDS011;10826;52.536;13.432;2022-11-20T14:40:54;9.40;;;7.80;;
21334;SDS011;10826;52.536;13.432;2022-11-20T14:43:33;7.90;;;7.10;;
21334;SDS011;10826;52.536;13.432;2022-11-20T14:46:02;8.50;;;7.77;;
21334;SDS011;10826;52.536;13.432;2022-11-20T14:48:39;13.63;;;9.00;;
21334;SDS011;10826;52.536;13.432;2022-11-20T14:51:35;9.10;;;8.17;;
21334;SDS011;10826;52.536;13.432;2022-11-20T14:54:17;8.87;;;7.23;;
21334;SDS011;10826;52.536;13.432;2022-11-20T14:56:59;8.33;;;6.93;;
21334;SDS011;10826;52.536;13.432;2022-11-20T14:59:32;14.20;;;9.80;;
21334;SDS011;10826;52.536;13.432;2022-11-20T15:02:00;11.27;;;8.30;;
21334;SDS011;10826;52.536;13.432;2022-11-20T15:04:30;8.70;;;7.17;;
21334;SDS011;10826;52.536;13.432;2022-11-20T15:06:58;8.10;;;7.30;;
21334;SDS011;10826;52.536;13.432;2022-11-20T15:09:25;13.67;;;11.17;;
21334;SDS011;10826;52.536;13.432;2022-11-20T15:11:58;10.47;;;8.40;;
21334;SDS011;10826;52.536;13.432;2022-11-20T15:14:27;15.03;;;8.13;;
21334;SDS011;10826;52.536;13.432;2022-11-20T15:16:55;10.67;;;6.93;;
21334;SDS011;10826;52.536;13.432;2022-11-20T15:19:23;7.93;;;7.13;;
21334;SDS011;10826;52.536;13.432;2022-11-20T15:21:51;9.53;;;7.53;;
21334;SDS011;10826;52.536;13.432;2022-11-20T15:24:18;8.03;;;6.67;;
21334;SDS011;10826;52.536;13.432;2022-11-20T15:26:44;10.13;;;6.53;;
21334;SDS011;10826;52.536;13.432;2022-11-20T15:29:11;6.93;;;6.23;;
21334;SDS011;10826;52.536;13.432;2022-11-20T15:31:39;7.93;;;7.07;;
21334;SDS011;10826;52.536;13.432;2022-11-20T15:34:13;10.87;;;7.40;;
21334;SDS011;10826;52.536;13.432;2022-11-20T15:36:40;10.30;;;6.77;;
21334;SDS011;10826;52.536;13.432;2022-11-20T15:39:08;9.03;;;7.13;;
21334;SDS011;10826;52.536;13.432;2022-11-20T15:41:37;8.57;;;7.77;;
21334;SDS011;10826;52.536;13.432;2022-11-20T15:44:04;7.80;;;7.00;;
21334;SDS011;10826;52.536;13.432;2022-11-20T15:46:31;8.70;;;7.27;;
21334;SDS011;10826;52.536;13.432;2022-11-20T15:49:03;8.30;;;7.10;;
21334;SDS011;10826;52.536;13.432;2022-11-20T15:51:33;8.33;;;6.90;;
21334;SDS011;10826;52.536;13.432;2022-11-20T15:54:12;8.60;;;7.43;;